Airfield :
LOGIN :

Register | Disclaimer

   EN    FR    IT 

 










Legend :    VFR   Marginal VFR   IFR   Intensive IFR   Very Intensive IFR
Visi :
Ceiling :
>= 8 km
>= 3000ft
5 to 8 km
1000 to 3000 ft
1500m to 5 km
500 to 1000 ft
800 to 1500m
200 to 500 ft
< 800m
< 200 ft
Symbols :   Thunderstorms  Fog  Heavy snow  Heavy precipitations  Wind > 20 kt
SIGMETs :     Misc.  Thunderstorms  Icing  Turbulence  Mountain Waves  Volcanic Ashes






- Airport Elevation : 286 ft
- IATA code : FFD


EGVA - RAF Fairford

CURRENT METAR :
  • 020756Z AUTO 24008KT 9999 BKN009 OVC055 14/13 A2981 RMK AO2 SLP097 T01400130 $

EXPIRED METARs :
  • 020736Z AUTO 23009KT 9999 BKN010 BKN018 BKN055 14/13 A2980 RMK AO2 CIG 010V026 BKN010 V SCT CIG 009 RWY09 SLP094 $
  • 020726Z AUTO 23009KT 9999 SCT010 BKN018 BKN025 BKN060 14/13 A2980 RMK AO2 CIG 009V018 CIG 015 RWY09 SLP094 $
  • 020716Z AUTO 24008KT 9999 BKN009 BKN016 OVC080 14/13 A2980 RMK AO2 SLP094 $
  • 020706Z AUTO 24009KT 9999 BKN010 BKN018 OVC080 14/13 A2979 RMK AO2 CIG 010V018 BKN010 V SCT SLP090 $
  • 020701Z AUTO 24010KT 9999 SCT010 BKN018 BKN065 OVC080 13/13 A2979 RMK AO2 CIG 010V018 CIG 017 RWY09 SLP090 $
  • 020626Z AUTO 23009KT 9999 BKN008 OVC080 13/12 A2978 RMK AO2 CIG 008V010 SLP087 $
  • 020556Z AUTO 23008KT 9999 SCT008 SCT033 BKN055 OVC080 12/12 A2978 RMK AO2 DZE02 SLP087 P0000 60000 T01240122 10124 20100 53003 $
  • 020542Z AUTO 23008KT 9999 SCT008 BKN046 BKN060 OVC080 12/12 A2978 RMK AO2 DZE02 SLP087 $

Expired Forecast.



MET'MAP, your aeronautical weather chart ! - Copyright ORBIFLY December 2007 - Disclaimer

ORBIFLY MET'MAP TEAM :

Programming & Development : Alexandra Zaïnal
Concept & original design : Baudouin d'Aumeries
Assistance for programming : Marc-Olivier Méhu
Technical & hardware support : Manuel Goepfert

Contact : metmap@orbifly.com




SOURCES & CREDITS :

   NOAA